createdAt,value
2023-02-17T00:01:15.155Z,8.27
2023-02-17T00:06:19.529Z,8.00
2023-02-17T00:11:22.095Z,6.57
2023-02-17T00:16:27.225Z,6.17
2023-02-17T00:21:32.465Z,6.77
2023-02-17T00:26:34.553Z,5.80
2023-02-17T00:31:38.286Z,6.00
2023-02-17T00:36:41.100Z,5.90
2023-02-17T00:41:44.074Z,6.47
2023-02-17T00:46:48.599Z,6.10
2023-02-17T00:51:51.404Z,6.93
2023-02-17T00:56:53.947Z,7.73
2023-02-17T01:01:57.909Z,7.07
2023-02-17T01:07:00.114Z,6.90
2023-02-17T01:12:02.215Z,6.63
2023-02-17T01:17:05.864Z,5.80
2023-02-17T01:22:07.924Z,6.00
2023-02-17T01:27:10.175Z,5.93
2023-02-17T01:32:13.933Z,6.10
2023-02-17T01:37:16.412Z,6.20
2023-02-17T01:42:21.089Z,5.97
2023-02-17T01:47:24.194Z,5.70
2023-02-17T01:52:28.168Z,5.83
2023-02-17T01:57:34.128Z,5.73
2023-02-17T02:02:37.854Z,3.43
2023-02-17T02:07:42.619Z,6.00
2023-02-17T02:12:45.316Z,5.93
2023-02-17T02:18:04.761Z,6.17
2023-02-17T02:23:29.817Z,5.73
2023-02-17T02:28:49.244Z,4.43
2023-02-17T02:33:58.120Z,3.03
2023-02-17T02:39:04.069Z,1.50
2023-02-17T02:44:07.127Z,2.73
2023-02-17T02:49:11.172Z,4.40
2023-02-17T02:54:28.245Z,4.37
2023-02-17T02:59:42.121Z,4.37
2023-02-17T03:04:52.910Z,4.53
2023-02-17T03:09:57.719Z,4.67
2023-02-17T03:15:03.164Z,3.87
2023-02-17T03:20:08.880Z,3.60
2023-02-17T03:25:11.382Z,4.17
2023-02-17T03:30:14.469Z,4.00
2023-02-17T03:35:18.254Z,4.80
2023-02-17T03:40:20.361Z,5.60
2023-02-17T03:45:22.755Z,3.87
2023-02-17T03:50:26.668Z,2.60
2023-02-17T03:55:28.487Z,2.60
2023-02-17T04:00:30.834Z,1.80
2023-02-17T04:05:34.519Z,3.30
2023-02-17T04:10:36.927Z,4.30
2023-02-17T04:15:39.576Z,3.50
2023-02-17T04:20:42.990Z,4.60
2023-02-17T04:25:45.654Z,3.50
2023-02-17T04:30:49.840Z,2.50
2023-02-17T04:35:53.980Z,1.90
2023-02-17T04:40:57.096Z,1.30
2023-02-17T04:45:59.972Z,1.30
2023-02-17T04:51:03.725Z,1.23
2023-02-17T04:56:06.584Z,2.10
2023-02-17T05:01:08.913Z,3.10
2023-02-17T05:06:12.484Z,3.07
2023-02-17T05:11:14.516Z,3.13
2023-02-17T05:16:17.098Z,3.53
2023-02-17T05:21:20.820Z,4.10
2023-02-17T05:26:23.157Z,4.17
2023-02-17T05:31:25.890Z,4.03
2023-02-17T05:36:30.007Z,3.47
2023-02-17T05:41:32.016Z,3.73
2023-02-17T05:46:35.316Z,3.53
2023-02-17T05:51:38.796Z,3.57
2023-02-17T05:56:40.945Z,3.77
2023-02-17T06:01:43.249Z,4.03
2023-02-17T06:06:47.044Z,3.20
2023-02-17T06:11:49.843Z,2.80
2023-02-17T06:16:51.929Z,2.97
2023-02-17T06:21:56.620Z,3.60
2023-02-17T06:26:58.737Z,4.23
2023-02-17T06:32:00.578Z,3.63
2023-02-17T06:37:04.452Z,3.87
2023-02-17T06:42:06.597Z,3.17
2023-02-17T06:47:09.191Z,1.60
2023-02-17T06:52:12.703Z,1.27
2023-02-17T06:57:15.246Z,1.20
2023-02-17T07:02:17.313Z,4.60
2023-02-17T07:07:21.114Z,3.20
2023-02-17T07:12:23.280Z,3.10
2023-02-17T07:17:26.007Z,4.40
2023-02-17T07:22:29.604Z,4.77
2023-02-17T07:27:31.961Z,5.40
2023-02-17T07:32:34.194Z,5.00
2023-02-17T07:37:37.966Z,3.53
2023-02-17T07:42:40.118Z,3.20
2023-02-17T07:47:42.674Z,4.13
2023-02-17T07:52:46.234Z,3.90
2023-02-17T07:57:48.697Z,4.07
2023-02-17T08:02:50.926Z,4.40
2023-02-17T08:08:14.656Z,4.43
2023-02-17T08:13:22.618Z,5.13
2023-02-17T08:18:24.689Z,4.60
2023-02-17T08:23:30.042Z,5.10
2023-02-17T08:28:32.813Z,5.97
2023-02-17T08:33:35.254Z,4.73
2023-02-17T08:38:39.676Z,2.77
2023-02-17T08:43:42.876Z,2.67
2023-02-17T08:48:45.147Z,3.07
2023-02-17T08:53:48.828Z,4.27
2023-02-17T08:58:51.300Z,4.33
2023-02-17T09:03:55.945Z,5.50
2023-02-17T09:08:59.398Z,4.90
2023-02-17T09:14:02.702Z,5.13
2023-02-17T09:19:05.457Z,5.40
2023-02-17T09:24:09.054Z,5.23
2023-02-17T09:29:11.615Z,3.50
2023-02-17T09:34:13.849Z,4.37
2023-02-17T09:39:17.814Z,5.33
2023-02-17T09:44:26.094Z,6.50
2023-02-17T09:49:33.136Z,6.17
2023-02-17T09:54:45.982Z,5.73
2023-02-17T09:59:53.711Z,5.37
2023-02-17T10:04:58.818Z,4.47
2023-02-17T10:10:08.633Z,4.63
2023-02-17T10:15:17.873Z,4.30
2023-02-17T10:20:25.071Z,6.20
2023-02-17T10:25:46.003Z,5.17
2023-02-17T10:30:58.150Z,5.73
2023-02-17T10:36:12.648Z,6.90
2023-02-17T10:41:22.190Z,4.77
2023-02-17T10:46:30.600Z,5.17
2023-02-17T10:51:33.584Z,4.93
2023-02-17T10:56:44.334Z,4.70
2023-02-17T11:01:46.507Z,5.67
2023-02-17T11:06:52.654Z,4.37
2023-02-17T11:12:01.606Z,4.53
2023-02-17T11:17:14.491Z,4.60
2023-02-17T11:22:35.511Z,4.60
2023-02-17T11:27:39.427Z,3.60
2023-02-17T11:32:41.999Z,3.43
2023-02-17T11:37:44.855Z,3.07
2023-02-17T11:42:57.647Z,2.13
2023-02-17T11:48:23.945Z,1.83
2023-02-17T11:53:41.231Z,1.20
2023-02-17T11:59:08.508Z,1.07
2023-02-17T12:04:27.177Z,1.50
2023-02-17T12:09:35.832Z,1.57
2023-02-17T12:15:02.089Z,1.60
2023-02-17T12:20:13.996Z,1.57
2023-02-17T12:25:39.358Z,3.20
2023-02-17T12:30:56.202Z,3.30
2023-02-17T12:36:02.838Z,3.13
2023-02-17T12:41:09.347Z,4.57
2023-02-17T12:46:16.417Z,4.53
2023-02-17T12:51:23.575Z,4.47
2023-02-17T12:56:51.078Z,4.07
2023-02-17T13:02:00.773Z,3.67
2023-02-17T13:07:27.737Z,2.97
2023-02-17T13:12:41.014Z,3.63
2023-02-17T13:17:54.836Z,4.13
2023-02-17T13:23:08.824Z,3.50
2023-02-17T13:28:35.965Z,3.30
2023-02-17T13:33:48.487Z,2.70
2023-02-17T13:39:01.846Z,3.10
2023-02-17T13:44:29.225Z,3.90
2023-02-17T13:49:35.506Z,3.77
2023-02-17T13:54:37.817Z,3.83
2023-02-17T13:59:40.441Z,4.30
2023-02-17T14:04:45.659Z,5.50
2023-02-17T14:09:54.775Z,4.70
2023-02-17T14:14:57.222Z,4.20
2023-02-17T14:20:01.075Z,5.30
2023-02-17T14:25:05.481Z,5.67
2023-02-17T14:30:13.862Z,6.23
2023-02-17T14:35:25.554Z,5.73
2023-02-17T14:40:28.496Z,5.70
2023-02-17T14:45:31.065Z,5.90
2023-02-17T14:50:42.448Z,5.33
2023-02-17T14:55:49.322Z,5.60
2023-02-17T15:00:52.806Z,5.33
2023-02-17T15:05:57.436Z,5.27
2023-02-17T15:11:00.974Z,5.33
2023-02-17T15:16:04.105Z,5.07
2023-02-17T15:21:25.451Z,5.13
2023-02-17T15:26:29.013Z,5.97
2023-02-17T15:31:36.753Z,5.70
2023-02-17T15:36:41.212Z,6.47
2023-02-17T15:41:45.056Z,6.20
2023-02-17T15:46:49.499Z,5.70
2023-02-17T15:51:57.198Z,5.73
2023-02-17T15:57:01.008Z,6.37
2023-02-17T16:02:04.322Z,6.53
2023-02-17T16:07:09.722Z,7.63
2023-02-17T16:12:17.934Z,5.17
2023-02-17T16:17:21.229Z,5.90
2023-02-17T16:22:25.912Z,5.43
2023-02-17T16:27:28.852Z,7.53
2023-02-17T16:32:34.831Z,7.60
2023-02-17T16:37:42.932Z,7.57
2023-02-17T16:42:46.459Z,7.07
2023-02-17T16:47:51.895Z,8.00
2023-02-17T16:53:00.515Z,6.70
2023-02-17T16:58:05.403Z,6.57
2023-02-17T17:03:11.221Z,8.17
2023-02-17T17:08:19.439Z,8.43
2023-02-17T17:13:23.121Z,9.50
2023-02-17T17:18:27.266Z,11.13
2023-02-17T17:23:32.686Z,8.97
2023-02-17T17:28:36.797Z,3.97
2023-02-17T17:33:40.560Z,2.23
2023-02-17T17:38:46.119Z,2.07
2023-02-17T17:43:51.390Z,2.00
2023-02-17T17:48:55.497Z,4.67
2023-02-17T17:54:05.679Z,5.40
2023-02-17T17:59:09.334Z,6.70
2023-02-17T18:04:12.660Z,5.60
2023-02-17T18:09:31.602Z,5.10
2023-02-17T18:14:38.730Z,5.43
2023-02-17T18:19:42.741Z,7.90
2023-02-17T18:24:48.310Z,10.30
2023-02-17T18:29:52.603Z,8.43
2023-02-17T18:34:58.657Z,3.80
2023-02-17T18:40:04.859Z,2.30
2023-02-17T18:45:09.548Z,3.20
2023-02-17T18:50:15.221Z,1.80
2023-02-17T18:55:20.959Z,4.73
2023-02-17T19:00:31.038Z,5.90
2023-02-17T19:05:35.052Z,12.37
2023-02-17T19:10:40.861Z,4.47
2023-02-17T19:15:44.168Z,2.40
2023-02-17T19:20:47.738Z,3.83
2023-02-17T19:25:52.446Z,5.60
2023-02-17T19:30:58.402Z,6.57
2023-02-17T19:36:02.933Z,3.77
2023-02-17T19:41:10.325Z,2.00
2023-02-17T19:46:16.937Z,1.53
2023-02-17T19:51:20.751Z,1.50
2023-02-17T19:56:30.067Z,1.63
2023-02-17T20:01:36.486Z,1.70
2023-02-17T20:06:44.489Z,2.10
2023-02-17T20:11:53.840Z,4.13
2023-02-17T20:17:01.536Z,4.47
2023-02-17T20:22:08.707Z,8.20
2023-02-17T20:27:13.796Z,8.77
2023-02-17T20:32:18.716Z,9.67
2023-02-17T20:37:23.329Z,9.57
2023-02-17T20:42:31.332Z,8.07
2023-02-17T20:47:34.661Z,7.87
2023-02-17T20:52:40.226Z,2.77
2023-02-17T20:57:46.275Z,1.60
2023-02-17T21:02:52.437Z,1.63
2023-02-17T21:07:58.530Z,1.00
2023-02-17T21:13:08.661Z,2.17
2023-02-17T21:18:11.431Z,1.20
2023-02-17T21:23:14.502Z,1.13
2023-02-17T21:28:19.306Z,1.10
2023-02-17T21:33:22.834Z,1.10
2023-02-17T21:38:27.143Z,1.20
2023-02-17T21:43:49.285Z,0.87
2023-02-17T21:48:53.366Z,1.20
2023-02-17T21:53:56.247Z,0.90
2023-02-17T21:59:00.789Z,0.97
2023-02-17T22:04:03.658Z,1.10
2023-02-17T22:09:08.939Z,1.20
2023-02-17T22:14:17.163Z,1.23
2023-02-17T22:19:21.802Z,0.93
2023-02-17T22:24:27.335Z,1.27
2023-02-17T22:29:31.092Z,1.20
2023-02-17T22:34:32.891Z,1.37
2023-02-17T22:39:35.282Z,1.53
2023-02-17T22:44:39.218Z,2.70
2023-02-17T22:49:41.704Z,2.17
2023-02-17T22:54:44.359Z,1.17
2023-02-17T22:59:48.870Z,1.30
2023-02-17T23:04:51.038Z,1.10
2023-02-17T23:09:53.554Z,0.90
2023-02-17T23:14:56.978Z,3.07
2023-02-17T23:19:59.339Z,3.40
2023-02-17T23:25:02.578Z,1.73
2023-02-17T23:30:08.196Z,2.60
2023-02-17T23:35:12.581Z,2.90
2023-02-17T23:40:16.388Z,3.00
2023-02-17T23:45:20.716Z,2.93
2023-02-17T23:50:22.928Z,3.43
2023-02-17T23:55:25.114Z,4.33
